sensor_id;sensor_type;location;lat;lon;timestamp;temperature;humidity
60293;DHT22;52402;52.670;6.750;2023-03-23T00:01:17;11.00;99.90
60293;DHT22;52402;52.670;6.750;2023-03-23T00:03:50;11.10;99.90
60293;DHT22;52402;52.670;6.750;2023-03-23T00:06:17;11.00;99.90
60293;DHT22;52402;52.670;6.750;2023-03-23T00:08:45;11.10;99.90
60293;DHT22;52402;52.670;6.750;2023-03-23T00:11:13;11.10;99.90
60293;DHT22;52402;52.670;6.750;2023-03-23T00:13:41;11.10;99.90
60293;DHT22;52402;52.670;6.750;2023-03-23T00:16:08;11.10;99.90
60293;DHT22;52402;52.670;6.750;2023-03-23T00:18:47;11.10;99.90
60293;DHT22;52402;52.670;6.750;2023-03-23T00:21:13;11.10;99.90
60293;DHT22;52402;52.670;6.750;2023-03-23T00:23:40;11.10;99.90
60293;DHT22;52402;52.670;6.750;2023-03-23T00:26:06;11.10;99.90
60293;DHT22;52402;52.670;6.750;2023-03-23T00:28:31;11.10;99.90
60293;DHT22;52402;52.670;6.750;2023-03-23T00:30:59;11.10;99.90
60293;DHT22;52402;52.670;6.750;2023-03-23T00:33:26;11.10;99.90
60293;DHT22;52402;52.670;6.750;2023-03-23T00:35:53;11.00;99.90
60293;DHT22;52402;52.670;6.750;2023-03-23T00:38:20;11.10;99.90
60293;DHT22;52402;52.670;6.750;2023-03-23T00:40:46;11.10;99.90
60293;DHT22;52402;52.670;6.750;2023-03-23T00:43:13;11.10;99.90
60293;DHT22;52402;52.670;6.750;2023-03-23T00:45:40;11.10;99.90
60293;DHT22;52402;52.670;6.750;2023-03-23T00:48:06;11.10;99.90
60293;DHT22;52402;52.670;6.750;2023-03-23T00:50:32;11.10;99.90
60293;DHT22;52402;52.670;6.750;2023-03-23T00:52:58;11.10;99.90
60293;DHT22;52402;52.670;6.750;2023-03-23T00:55:25;11.10;99.90
60293;DHT22;52402;52.670;6.750;2023-03-23T00:57:51;11.10;99.90
60293;DHT22;52402;52.670;6.750;2023-03-23T01:00:17;11.10;99.90
60293;DHT22;52402;52.670;6.750;2023-03-23T01:02:44;11.10;99.90
60293;DHT22;52402;52.670;6.750;2023-03-23T01:05:11;11.10;99.90
60293;DHT22;52402;52.670;6.750;2023-03-23T01:07:39;11.10;99.90
60293;DHT22;52402;52.670;6.750;2023-03-23T01:10:05;11.10;99.90
60293;DHT22;52402;52.670;6.750;2023-03-23T01:12:31;11.10;99.90
60293;DHT22;52402;52.670;6.750;2023-03-23T01:14:56;11.10;99.90
60293;DHT22;52402;52.670;6.750;2023-03-23T01:17:22;11.10;99.90
60293;DHT22;52402;52.670;6.750;2023-03-23T01:19:48;11.10;99.90
60293;DHT22;52402;52.670;6.750;2023-03-23T01:22:14;11.10;99.90
60293;DHT22;52402;52.670;6.750;2023-03-23T01:24:40;11.10;99.90
60293;DHT22;52402;52.670;6.750;2023-03-23T01:27:06;11.10;99.90
60293;DHT22;52402;52.670;6.750;2023-03-23T01:29:35;11.10;99.90
60293;DHT22;52402;52.670;6.750;2023-03-23T01:32:02;11.00;99.90
60293;DHT22;52402;52.670;6.750;2023-03-23T01:34:28;11.10;99.90
60293;DHT22;52402;52.670;6.750;2023-03-23T01:36:53;11.10;99.90
60293;DHT22;52402;52.670;6.750;2023-03-23T01:39:20;11.10;99.90
60293;DHT22;52402;52.670;6.750;2023-03-23T01:41:45;11.10;99.90
60293;DHT22;52402;52.670;6.750;2023-03-23T01:46:43;11.10;99.90
60293;DHT22;52402;52.670;6.750;2023-03-23T01:49:22;11.10;99.90
60293;DHT22;52402;52.670;6.750;2023-03-23T01:51:56;11.10;99.90
60293;DHT22;52402;52.670;6.750;2023-03-23T01:54:23;11.00;99.90
60293;DHT22;52402;52.670;6.750;2023-03-23T01:57:17;11.00;99.90
60293;DHT22;52402;52.670;6.750;2023-03-23T01:59:44;11.10;99.90
60293;DHT22;52402;52.670;6.750;2023-03-23T02:02:11;11.10;99.90
60293;DHT22;52402;52.670;6.750;2023-03-23T02:04:39;11.10;99.90
60293;DHT22;52402;52.670;6.750;2023-03-23T02:07:07;11.10;99.90
60293;DHT22;52402;52.670;6.750;2023-03-23T02:09:32;11.10;99.90
60293;DHT22;52402;52.670;6.750;2023-03-23T02:11:58;11.10;99.90
60293;DHT22;52402;52.670;6.750;2023-03-23T02:14:26;11.10;99.90
60293;DHT22;52402;52.670;6.750;2023-03-23T02:17:08;11.10;99.90
60293;DHT22;52402;52.670;6.750;2023-03-23T02:25:28;11.10;99.90
60293;DHT22;52402;52.670;6.750;2023-03-23T02:28:15;11.10;99.90
60293;DHT22;52402;52.670;6.750;2023-03-23T02:34:29;11.10;99.90
60293;DHT22;52402;52.670;6.750;2023-03-23T02:36:52;11.10;99.90
60293;DHT22;52402;52.670;6.750;2023-03-23T02:39:24;11.10;99.90
60293;DHT22;52402;52.670;6.750;2023-03-23T02:41:56;11.10;99.90
60293;DHT22;52402;52.670;6.750;2023-03-23T02:44:24;11.10;99.90
60293;DHT22;52402;52.670;6.750;2023-03-23T02:46:56;11.00;99.90
60293;DHT22;52402;52.670;6.750;2023-03-23T02:49:24;11.10;99.90
60293;DHT22;52402;52.670;6.750;2023-03-23T02:51:51;11.10;99.90
60293;DHT22;52402;52.670;6.750;2023-03-23T02:54:18;11.00;99.90
60293;DHT22;52402;52.670;6.750;2023-03-23T02:56:45;11.00;99.90
60293;DHT22;52402;52.670;6.750;2023-03-23T02:59:12;11.00;99.90
60293;DHT22;52402;52.670;6.750;2023-03-23T03:04:18;11.10;99.90
60293;DHT22;52402;52.670;6.750;2023-03-23T03:07:32;11.10;99.90
60293;DHT22;52402;52.670;6.750;2023-03-23T03:10:08;11.10;99.90
60293;DHT22;52402;52.670;6.750;2023-03-23T03:12:53;11.10;99.90
60293;DHT22;52402;52.670;6.750;2023-03-23T03:15:28;11.10;99.90
60293;DHT22;52402;52.670;6.750;2023-03-23T03:18:06;11.20;99.90
60293;DHT22;52402;52.670;6.750;2023-03-23T03:20:40;11.20;99.90
60293;DHT22;52402;52.670;6.750;2023-03-23T03:23:07;11.20;99.90
60293;DHT22;52402;52.670;6.750;2023-03-23T03:25:34;11.20;99.90
60293;DHT22;52402;52.670;6.750;2023-03-23T03:28:01;11.20;99.90
60293;DHT22;52402;52.670;6.750;2023-03-23T03:30:30;11.20;99.90
60293;DHT22;52402;52.670;6.750;2023-03-23T03:32:58;11.20;99.90
60293;DHT22;52402;52.670;6.750;2023-03-23T03:35:25;11.30;99.90
60293;DHT22;52402;52.670;6.750;2023-03-23T03:37:52;11.20;99.90
60293;DHT22;52402;52.670;6.750;2023-03-23T03:40:21;11.30;99.90
60293;DHT22;52402;52.670;6.750;2023-03-23T03:42:46;11.30;99.90
60293;DHT22;52402;52.670;6.750;2023-03-23T03:45:17;11.30;99.90
60293;DHT22;52402;52.670;6.750;2023-03-23T03:47:43;11.30;99.90
60293;DHT22;52402;52.670;6.750;2023-03-23T03:50:09;11.30;99.90
60293;DHT22;52402;52.670;6.750;2023-03-23T03:52:35;11.30;99.90
60293;DHT22;52402;52.670;6.750;2023-03-23T03:55:01;11.30;99.90
60293;DHT22;52402;52.670;6.750;2023-03-23T03:57:27;11.30;99.90
60293;DHT22;52402;52.670;6.750;2023-03-23T03:59:52;11.30;99.90
60293;DHT22;52402;52.670;6.750;2023-03-23T04:02:18;11.30;99.90
60293;DHT22;52402;52.670;6.750;2023-03-23T04:04:49;11.30;99.90
60293;DHT22;52402;52.670;6.750;2023-03-23T04:07:15;11.30;99.90
60293;DHT22;52402;52.670;6.750;2023-03-23T04:09:45;11.30;99.90
60293;DHT22;52402;52.670;6.750;2023-03-23T04:12:12;11.30;99.90
60293;DHT22;52402;52.670;6.750;2023-03-23T04:14:38;11.30;99.90
60293;DHT22;52402;52.670;6.750;2023-03-23T04:17:03;11.30;99.90
60293;DHT22;52402;52.670;6.750;2023-03-23T04:19:29;11.30;99.90
60293;DHT22;52402;52.670;6.750;2023-03-23T04:21:59;11.30;99.90
60293;DHT22;52402;52.670;6.750;2023-03-23T04:24:24;11.30;99.90
60293;DHT22;52402;52.670;6.750;2023-03-23T04:26:50;11.30;99.90
60293;DHT22;52402;52.670;6.750;2023-03-23T04:29:19;11.30;99.90
60293;DHT22;52402;52.670;6.750;2023-03-23T04:31:45;11.30;99.90
60293;DHT22;52402;52.670;6.750;2023-03-23T04:34:11;11.30;99.90
60293;DHT22;52402;52.670;6.750;2023-03-23T04:36:39;11.30;99.90
60293;DHT22;52402;52.670;6.750;2023-03-23T04:39:06;11.30;99.90
60293;DHT22;52402;52.670;6.750;2023-03-23T04:41:36;11.30;99.90
60293;DHT22;52402;52.670;6.750;2023-03-23T04:44:01;11.40;99.90
60293;DHT22;52402;52.670;6.750;2023-03-23T04:46:29;11.40;99.90
60293;DHT22;52402;52.670;6.750;2023-03-23T04:48:55;11.40;99.90
60293;DHT22;52402;52.670;6.750;2023-03-23T04:51:24;11.40;99.90
60293;DHT22;52402;52.670;6.750;2023-03-23T04:53:52;11.40;99.90
60293;DHT22;52402;52.670;6.750;2023-03-23T04:56:18;11.40;99.90
60293;DHT22;52402;52.670;6.750;2023-03-23T04:58:44;11.40;99.90
60293;DHT22;52402;52.670;6.750;2023-03-23T05:01:10;11.40;99.90
60293;DHT22;52402;52.670;6.750;2023-03-23T05:03:39;11.40;99.90
60293;DHT22;52402;52.670;6.750;2023-03-23T05:06:05;11.50;99.90
60293;DHT22;52402;52.670;6.750;2023-03-23T05:08:31;11.50;99.90
60293;DHT22;52402;52.670;6.750;2023-03-23T05:10:59;11.50;99.90
60293;DHT22;52402;52.670;6.750;2023-03-23T05:13:27;11.40;99.90
60293;DHT22;52402;52.670;6.750;2023-03-23T05:15:54;11.50;99.90
60293;DHT22;52402;52.670;6.750;2023-03-23T05:18:20;11.50;99.90
60293;DHT22;52402;52.670;6.750;2023-03-23T05:20:46;11.50;99.90
60293;DHT22;52402;52.670;6.750;2023-03-23T05:23:12;11.50;99.90
60293;DHT22;52402;52.670;6.750;2023-03-23T05:25:39;11.40;99.90
60293;DHT22;52402;52.670;6.750;2023-03-23T05:28:11;11.40;99.90
60293;DHT22;52402;52.670;6.750;2023-03-23T05:30:37;11.30;99.90
60293;DHT22;52402;52.670;6.750;2023-03-23T05:33:04;11.20;99.90
60293;DHT22;52402;52.670;6.750;2023-03-23T05:35:30;11.00;99.90
60293;DHT22;52402;52.670;6.750;2023-03-23T05:37:56;10.80;99.90
60293;DHT22;52402;52.670;6.750;2023-03-23T05:40:22;10.60;99.90
60293;DHT22;52402;52.670;6.750;2023-03-23T05:42:51;10.50;99.90
60293;DHT22;52402;52.670;6.750;2023-03-23T05:45:17;10.30;99.90
60293;DHT22;52402;52.670;6.750;2023-03-23T05:47:43;10.20;99.90
60293;DHT22;52402;52.670;6.750;2023-03-23T05:50:09;10.20;99.90
60293;DHT22;52402;52.670;6.750;2023-03-23T05:52:37;10.10;99.90
60293;DHT22;52402;52.670;6.750;2023-03-23T05:55:03;10.10;99.90
60293;DHT22;52402;52.670;6.750;2023-03-23T05:57:30;10.00;99.90
60293;DHT22;52402;52.670;6.750;2023-03-23T05:59:56;10.00;99.90
60293;DHT22;52402;52.670;6.750;2023-03-23T06:02:24;10.00;99.90
60293;DHT22;52402;52.670;6.750;2023-03-23T06:04:50;10.00;99.90
60293;DHT22;52402;52.670;6.750;2023-03-23T06:07:25;10.00;99.90
60293;DHT22;52402;52.670;6.750;2023-03-23T06:09:52;10.00;99.90
60293;DHT22;52402;52.670;6.750;2023-03-23T06:12:18;10.00;99.90
60293;DHT22;52402;52.670;6.750;2023-03-23T06:14:48;10.00;99.90
60293;DHT22;52402;52.670;6.750;2023-03-23T06:17:16;10.10;99.90
60293;DHT22;52402;52.670;6.750;2023-03-23T06:19:43;10.10;99.90
60293;DHT22;52402;52.670;6.750;2023-03-23T06:22:09;10.10;99.90
60293;DHT22;52402;52.670;6.750;2023-03-23T06:24:35;10.10;99.90
60293;DHT22;52402;52.670;6.750;2023-03-23T06:27:01;10.20;99.90
60293;DHT22;52402;52.670;6.750;2023-03-23T06:29:28;10.20;99.90
60293;DHT22;52402;52.670;6.750;2023-03-23T06:31:59;10.20;99.90
60293;DHT22;52402;52.670;6.750;2023-03-23T06:34:26;10.20;99.90
60293;DHT22;52402;52.670;6.750;2023-03-23T06:36:51;10.20;99.90
60293;DHT22;52402;52.670;6.750;2023-03-23T06:39:20;10.30;99.90
60293;DHT22;52402;52.670;6.750;2023-03-23T06:41:46;10.30;99.90
60293;DHT22;52402;52.670;6.750;2023-03-23T06:44:11;10.30;99.90
60293;DHT22;52402;52.670;6.750;2023-03-23T06:46:39;10.40;99.90
60293;DHT22;52402;52.670;6.750;2023-03-23T06:49:05;10.40;99.90
60293;DHT22;52402;52.670;6.750;2023-03-23T06:51:31;10.40;99.90
60293;DHT22;52402;52.670;6.750;2023-03-23T06:53:56;10.50;99.90
60293;DHT22;52402;52.670;6.750;2023-03-23T06:56:23;10.50;99.90
60293;DHT22;52402;52.670;6.750;2023-03-23T06:58:49;10.60;99.90
60293;DHT22;52402;52.670;6.750;2023-03-23T07:01:14;10.60;99.90
60293;DHT22;52402;52.670;6.750;2023-03-23T07:03:41;10.70;99.90
60293;DHT22;52402;52.670;6.750;2023-03-23T07:06:08;10.70;99.90
60293;DHT22;52402;52.670;6.750;2023-03-23T07:08:34;10.70;99.90
60293;DHT22;52402;52.670;6.750;2023-03-23T07:11:00;10.80;99.90
60293;DHT22;52402;52.670;6.750;2023-03-23T07:13:26;10.80;99.90
60293;DHT22;52402;52.670;6.750;2023-03-23T07:15:52;10.80;99.90
60293;DHT22;52402;52.670;6.750;2023-03-23T07:18:20;10.80;99.90
60293;DHT22;52402;52.670;6.750;2023-03-23T07:20:52;10.90;99.90
60293;DHT22;52402;52.670;6.750;2023-03-23T07:23:18;10.90;99.90
60293;DHT22;52402;52.670;6.750;2023-03-23T07:25:45;10.90;99.90
60293;DHT22;52402;52.670;6.750;2023-03-23T07:28:11;10.90;99.90
60293;DHT22;52402;52.670;6.750;2023-03-23T07:30:38;10.90;99.90
60293;DHT22;52402;52.670;6.750;2023-03-23T07:33:08;10.90;99.90
60293;DHT22;52402;52.670;6.750;2023-03-23T07:35:34;11.00;99.90
60293;DHT22;52402;52.670;6.750;2023-03-23T07:38:01;11.00;99.90
60293;DHT22;52402;52.670;6.750;2023-03-23T07:40:27;11.00;99.90
60293;DHT22;52402;52.670;6.750;2023-03-23T07:42:55;11.00;99.90
60293;DHT22;52402;52.670;6.750;2023-03-23T07:45:21;11.10;99.90
60293;DHT22;52402;52.670;6.750;2023-03-23T07:47:47;11.10;99.90
60293;DHT22;52402;52.670;6.750;2023-03-23T07:50:13;11.10;99.90
60293;DHT22;52402;52.670;6.750;2023-03-23T07:52:39;11.10;99.90
60293;DHT22;52402;52.670;6.750;2023-03-23T07:55:09;11.20;99.90
60293;DHT22;52402;52.670;6.750;2023-03-23T07:57:37;11.20;99.90
60293;DHT22;52402;52.670;6.750;2023-03-23T08:00:04;11.20;99.90
60293;DHT22;52402;52.670;6.750;2023-03-23T08:02:47;11.30;99.90
60293;DHT22;52402;52.670;6.750;2023-03-23T08:05:14;11.30;99.90
60293;DHT22;52402;52.670;6.750;2023-03-23T08:07:41;11.30;99.90
60293;DHT22;52402;52.670;6.750;2023-03-23T08:10:08;11.40;99.90
60293;DHT22;52402;52.670;6.750;2023-03-23T08:12:39;11.40;99.90
60293;DHT22;52402;52.670;6.750;2023-03-23T08:15:06;11.40;99.90
60293;DHT22;52402;52.670;6.750;2023-03-23T08:17:33;11.40;99.90
60293;DHT22;52402;52.670;6.750;2023-03-23T08:20:00;11.50;99.90
60293;DHT22;52402;52.670;6.750;2023-03-23T08:22:25;11.50;99.90
60293;DHT22;52402;52.670;6.750;2023-03-23T08:24:51;11.60;99.90
60293;DHT22;52402;52.670;6.750;2023-03-23T08:27:18;11.60;99.90
60293;DHT22;52402;52.670;6.750;2023-03-23T08:29:46;11.60;99.90
60293;DHT22;52402;52.670;6.750;2023-03-23T08:32:13;11.60;99.90
60293;DHT22;52402;52.670;6.750;2023-03-23T08:34:40;11.70;99.90
60293;DHT22;52402;52.670;6.750;2023-03-23T08:37:08;11.70;99.90
60293;DHT22;52402;52.670;6.750;2023-03-23T08:39:34;11.70;99.90
60293;DHT22;52402;52.670;6.750;2023-03-23T08:42:00;11.70;99.90
60293;DHT22;52402;52.670;6.750;2023-03-23T08:44:25;11.80;99.90
60293;DHT22;52402;52.670;6.750;2023-03-23T08:46:51;11.80;99.90
60293;DHT22;52402;52.670;6.750;2023-03-23T08:49:22;11.80;99.90
60293;DHT22;52402;52.670;6.750;2023-03-23T08:51:48;11.90;99.90
60293;DHT22;52402;52.670;6.750;2023-03-23T08:54:13;11.90;99.90
60293;DHT22;52402;52.670;6.750;2023-03-23T08:56:39;11.90;99.90
60293;DHT22;52402;52.670;6.750;2023-03-23T08:59:05;11.90;99.90
60293;DHT22;52402;52.670;6.750;2023-03-23T09:01:32;11.90;99.90
60293;DHT22;52402;52.670;6.750;2023-03-23T09:03:58;11.90;99.90
60293;DHT22;52402;52.670;6.750;2023-03-23T09:06:25;11.90;99.90
60293;DHT22;52402;52.670;6.750;2023-03-23T09:08:51;12.00;99.90
60293;DHT22;52402;52.670;6.750;2023-03-23T09:11:17;12.00;99.90
60293;DHT22;52402;52.670;6.750;2023-03-23T09:13:43;11.90;99.90
60293;DHT22;52402;52.670;6.750;2023-03-23T09:16:09;11.90;99.90
60293;DHT22;52402;52.670;6.750;2023-03-23T09:18:35;11.80;99.90
60293;DHT22;52402;52.670;6.750;2023-03-23T09:21:02;11.80;99.90
60293;DHT22;52402;52.670;6.750;2023-03-23T09:23:28;11.80;99.90
60293;DHT22;52402;52.670;6.750;2023-03-23T09:25:54;11.80;99.90
60293;DHT22;52402;52.670;6.750;2023-03-23T09:28:20;11.80;99.90
60293;DHT22;52402;52.670;6.750;2023-03-23T09:30:46;11.90;99.90
60293;DHT22;52402;52.670;6.750;2023-03-23T09:33:13;12.00;99.90
60293;DHT22;52402;52.670;6.750;2023-03-23T09:35:39;12.00;99.90
60293;DHT22;52402;52.670;6.750;2023-03-23T09:38:07;12.00;99.90
60293;DHT22;52402;52.670;6.750;2023-03-23T09:46:35;12.20;99.90
60293;DHT22;52402;52.670;6.750;2023-03-23T09:49:27;12.40;99.90
60293;DHT22;52402;52.670;6.750;2023-03-23T09:52:22;12.50;99.90
60293;DHT22;52402;52.670;6.750;2023-03-23T09:54:53;12.50;99.90
60293;DHT22;52402;52.670;6.750;2023-03-23T09:57:33;12.50;99.90
60293;DHT22;52402;52.670;6.750;2023-03-23T10:00:08;12.50;99.90
60293;DHT22;52402;52.670;6.750;2023-03-23T10:05:31;12.70;99.90
60293;DHT22;52402;52.670;6.750;2023-03-23T10:08:00;12.80;99.90
60293;DHT22;52402;52.670;6.750;2023-03-23T10:10:56;12.80;99.90
60293;DHT22;52402;52.670;6.750;2023-03-23T10:13:41;12.90;99.90
60293;DHT22;52402;52.670;6.750;2023-03-23T10:16:14;13.00;99.90
60293;DHT22;52402;52.670;6.750;2023-03-23T10:18:49;13.30;99.90
60293;DHT22;52402;52.670;6.750;2023-03-23T10:21:19;13.50;99.90
60293;DHT22;52402;52.670;6.750;2023-03-23T10:23:59;13.50;99.90
60293;DHT22;52402;52.670;6.750;2023-03-23T10:29:32;13.50;99.90
60293;DHT22;52402;52.670;6.750;2023-03-23T10:32:02;13.50;99.90
60293;DHT22;52402;52.670;6.750;2023-03-23T10:34:40;13.50;99.90
60293;DHT22;52402;52.670;6.750;2023-03-23T10:37:23;13.70;99.90
60293;DHT22;52402;52.670;6.750;2023-03-23T10:39:55;13.70;99.90
60293;DHT22;52402;52.670;6.750;2023-03-23T10:42:24;13.90;99.90
60293;DHT22;52402;52.670;6.750;2023-03-23T10:44:50;13.90;99.90
60293;DHT22;52402;52.670;6.750;2023-03-23T10:47:17;13.90;99.90
60293;DHT22;52402;52.670;6.750;2023-03-23T10:49:53;13.70;99.90
60293;DHT22;52402;52.670;6.750;2023-03-23T10:52:33;13.60;99.90
60293;DHT22;52402;52.670;6.750;2023-03-23T10:55:15;13.60;99.90
60293;DHT22;52402;52.670;6.750;2023-03-23T10:57:44;13.60;99.90
60293;DHT22;52402;52.670;6.750;2023-03-23T11:02:47;13.60;99.90
60293;DHT22;52402;52.670;6.750;2023-03-23T11:05:26;13.50;99.90
60293;DHT22;52402;52.670;6.750;2023-03-23T11:07:55;13.40;99.90
60293;DHT22;52402;52.670;6.750;2023-03-23T11:10:39;13.30;99.90
60293;DHT22;52402;52.670;6.750;2023-03-23T11:13:15;13.20;99.90
60293;DHT22;52402;52.670;6.750;2023-03-23T11:15:43;13.10;99.90
60293;DHT22;52402;52.670;6.750;2023-03-23T11:18:19;12.90;99.90
60293;DHT22;52402;52.670;6.750;2023-03-23T11:20:48;12.90;99.90
60293;DHT22;52402;52.670;6.750;2023-03-23T11:23:19;12.80;99.90
60293;DHT22;52402;52.670;6.750;2023-03-23T11:28:37;12.80;99.90
60293;DHT22;52402;52.670;6.750;2023-03-23T11:31:05;12.70;99.90
60293;DHT22;52402;52.670;6.750;2023-03-23T11:33:54;12.80;99.90
60293;DHT22;52402;52.670;6.750;2023-03-23T11:36:20;12.80;99.90
60293;DHT22;52402;52.670;6.750;2023-03-23T11:38:53;12.90;99.90
60293;DHT22;52402;52.670;6.750;2023-03-23T11:41:22;13.00;99.90
60293;DHT22;52402;52.670;6.750;2023-03-23T11:43:51;13.00;99.90
60293;DHT22;52402;52.670;6.750;2023-03-23T11:46:34;13.10;99.90
60293;DHT22;52402;52.670;6.750;2023-03-23T11:49:05;13.10;99.90
60293;DHT22;52402;52.670;6.750;2023-03-23T11:51:45;13.00;99.90
60293;DHT22;52402;52.670;6.750;2023-03-23T11:54:26;12.90;99.90
60293;DHT22;52402;52.670;6.750;2023-03-23T11:56:54;13.10;99.90
60293;DHT22;52402;52.670;6.750;2023-03-23T11:59:32;13.20;99.90
60293;DHT22;52402;52.670;6.750;2023-03-23T12:13:06;13.60;99.90
60293;DHT22;52402;52.670;6.750;2023-03-23T12:15:43;13.70;99.90
60293;DHT22;52402;52.670;6.750;2023-03-23T12:18:40;13.70;99.90
60293;DHT22;52402;52.670;6.750;2023-03-23T12:21:27;13.60;99.90
60293;DHT22;52402;52.670;6.750;2023-03-23T12:26:36;13.40;99.90
60293;DHT22;52402;52.670;6.750;2023-03-23T12:35:42;13.70;99.90
60293;DHT22;52402;52.670;6.750;2023-03-23T12:51:49;15.00;99.90
60293;DHT22;52402;52.670;6.750;2023-03-23T12:54:44;15.00;99.90
60293;DHT22;52402;52.670;6.750;2023-03-23T13:00:25;15.60;99.90
60293;DHT22;52402;52.670;6.750;2023-03-23T13:05:57;15.80;99.90
60293;DHT22;52402;52.670;6.750;2023-03-23T13:08:36;15.90;99.90
60293;DHT22;52402;52.670;6.750;2023-03-23T13:11:08;15.90;99.90
60293;DHT22;52402;52.670;6.750;2023-03-23T13:13:50;15.80;99.90
60293;DHT22;52402;52.670;6.750;2023-03-23T13:16:40;15.70;99.90
60293;DHT22;52402;52.670;6.750;2023-03-23T13:21:50;15.40;99.90
60293;DHT22;52402;52.670;6.750;2023-03-23T13:24:22;15.20;99.90
60293;DHT22;52402;52.670;6.750;2023-03-23T13:26:50;15.10;99.90
60293;DHT22;52402;52.670;6.750;2023-03-23T13:29:20;14.90;99.90
60293;DHT22;52402;52.670;6.750;2023-03-23T13:31:50;14.90;99.90
60293;DHT22;52402;52.670;6.750;2023-03-23T13:34:29;14.60;99.90
60293;DHT22;52402;52.670;6.750;2023-03-23T13:37:05;14.50;99.90
60293;DHT22;52402;52.670;6.750;2023-03-23T13:39:33;14.40;99.90
60293;DHT22;52402;52.670;6.750;2023-03-23T13:44:26;14.20;99.90
60293;DHT22;52402;52.670;6.750;2023-03-23T13:49:59;14.70;99.90
60293;DHT22;52402;52.670;6.750;2023-03-23T14:00:46;15.70;99.90
60293;DHT22;52402;52.670;6.750;2023-03-23T14:03:25;15.80;99.90
60293;DHT22;52402;52.670;6.750;2023-03-23T14:06:02;16.00;99.90
60293;DHT22;52402;52.670;6.750;2023-03-23T14:11:09;16.10;99.90
60293;DHT22;52402;52.670;6.750;2023-03-23T14:14:01;16.20;99.90
60293;DHT22;52402;52.670;6.750;2023-03-23T14:16:40;16.00;99.90
60293;DHT22;52402;52.670;6.750;2023-03-23T14:19:24;15.70;99.90
60293;DHT22;52402;52.670;6.750;2023-03-23T14:21:53;15.50;99.90
60293;DHT22;52402;52.670;6.750;2023-03-23T14:24:28;15.40;99.90
60293;DHT22;52402;52.670;6.750;2023-03-23T14:27:09;15.50;99.90
60293;DHT22;52402;52.670;6.750;2023-03-23T14:29:35;15.70;99.90
60293;DHT22;52402;52.670;6.750;2023-03-23T14:32:02;15.70;99.90
60293;DHT22;52402;52.670;6.750;2023-03-23T14:34:31;15.80;99.90
60293;DHT22;52402;52.670;6.750;2023-03-23T14:36:59;15.70;99.90
60293;DHT22;52402;52.670;6.750;2023-03-23T14:39:28;15.70;99.90
60293;DHT22;52402;52.670;6.750;2023-03-23T14:41:55;15.80;99.90
60293;DHT22;52402;52.670;6.750;2023-03-23T14:44:27;16.00;99.90
60293;DHT22;52402;52.670;6.750;2023-03-23T14:46:56;16.10;99.90
60293;DHT22;52402;52.670;6.750;2023-03-23T14:49:35;16.20;99.90
60293;DHT22;52402;52.670;6.750;2023-03-23T14:52:15;16.10;99.90
60293;DHT22;52402;52.670;6.750;2023-03-23T14:54:42;16.00;99.90
60293;DHT22;52402;52.670;6.750;2023-03-23T14:57:18;15.80;99.90
60293;DHT22;52402;52.670;6.750;2023-03-23T14:59:46;15.50;99.90
60293;DHT22;52402;52.670;6.750;2023-03-23T15:04:40;15.20;99.90
60293;DHT22;52402;52.670;6.750;2023-03-23T15:07:09;15.10;99.90
60293;DHT22;52402;52.670;6.750;2023-03-23T15:09:39;14.90;99.90
60293;DHT22;52402;52.670;6.750;2023-03-23T15:12:06;14.50;99.90
60293;DHT22;52402;52.670;6.750;2023-03-23T15:14:46;14.30;99.90
60293;DHT22;52402;52.670;6.750;2023-03-23T15:17:24;14.10;99.90
60293;DHT22;52402;52.670;6.750;2023-03-23T15:19:51;14.00;99.90
60293;DHT22;52402;52.670;6.750;2023-03-23T15:22:25;13.90;99.90
60293;DHT22;52402;52.670;6.750;2023-03-23T15:24:53;13.80;99.90
60293;DHT22;52402;52.670;6.750;2023-03-23T15:27:29;13.90;99.90
60293;DHT22;52402;52.670;6.750;2023-03-23T15:29:57;13.90;99.90
60293;DHT22;52402;52.670;6.750;2023-03-23T15:32:40;14.00;99.90
60293;DHT22;52402;52.670;6.750;2023-03-23T15:35:18;14.10;99.90
60293;DHT22;52402;52.670;6.750;2023-03-23T15:37:48;14.20;99.90
60293;DHT22;52402;52.670;6.750;2023-03-23T15:40:25;14.20;99.90
60293;DHT22;52402;52.670;6.750;2023-03-23T15:43:16;14.10;99.90
60293;DHT22;52402;52.670;6.750;2023-03-23T15:48:50;13.90;99.90
60293;DHT22;52402;52.670;6.750;2023-03-23T15:51:18;13.80;99.90
60293;DHT22;52402;52.670;6.750;2023-03-23T15:53:44;13.70;99.90
60293;DHT22;52402;52.670;6.750;2023-03-23T15:56:12;13.60;99.90
60293;DHT22;52402;52.670;6.750;2023-03-23T15:58:38;13.50;99.90
60293;DHT22;52402;52.670;6.750;2023-03-23T16:01:24;13.40;99.90
60293;DHT22;52402;52.670;6.750;2023-03-23T16:03:54;13.30;99.90
60293;DHT22;52402;52.670;6.750;2023-03-23T16:06:23;13.20;99.90
60293;DHT22;52402;52.670;6.750;2023-03-23T16:08:49;13.10;99.90
60293;DHT22;52402;52.670;6.750;2023-03-23T16:11:17;13.10;99.90
60293;DHT22;52402;52.670;6.750;2023-03-23T16:13:43;13.20;99.90
60293;DHT22;52402;52.670;6.750;2023-03-23T16:18:41;13.00;99.90
60293;DHT22;52402;52.670;6.750;2023-03-23T16:21:06;13.00;99.90
60293;DHT22;52402;52.670;6.750;2023-03-23T16:23:32;13.00;99.90
60293;DHT22;52402;52.670;6.750;2023-03-23T16:25:58;13.00;99.90
60293;DHT22;52402;52.670;6.750;2023-03-23T16:28:24;13.10;99.90
60293;DHT22;52402;52.670;6.750;2023-03-23T16:30:49;13.10;99.90
60293;DHT22;52402;52.670;6.750;2023-03-23T16:33:15;13.10;99.90
60293;DHT22;52402;52.670;6.750;2023-03-23T16:35:41;13.10;99.90
60293;DHT22;52402;52.670;6.750;2023-03-23T16:38:14;13.10;99.90
60293;DHT22;52402;52.670;6.750;2023-03-23T16:40:41;13.10;99.90
60293;DHT22;52402;52.670;6.750;2023-03-23T16:43:08;13.00;99.90
60293;DHT22;52402;52.670;6.750;2023-03-23T16:45:34;13.00;99.90
60293;DHT22;52402;52.670;6.750;2023-03-23T16:48:00;13.00;99.90
60293;DHT22;52402;52.670;6.750;2023-03-23T16:50:27;13.00;99.90
60293;DHT22;52402;52.670;6.750;2023-03-23T16:52:54;12.90;99.90
60293;DHT22;52402;52.670;6.750;2023-03-23T16:55:20;12.90;99.90
60293;DHT22;52402;52.670;6.750;2023-03-23T16:57:46;12.80;99.90
60293;DHT22;52402;52.670;6.750;2023-03-23T17:00:16;12.80;99.90
60293;DHT22;52402;52.670;6.750;2023-03-23T17:02:48;12.70;99.90
60293;DHT22;52402;52.670;6.750;2023-03-23T17:05:16;12.60;99.90
60293;DHT22;52402;52.670;6.750;2023-03-23T17:07:42;12.50;99.90
60293;DHT22;52402;52.670;6.750;2023-03-23T17:10:09;12.50;99.90
60293;DHT22;52402;52.670;6.750;2023-03-23T17:12:35;12.40;99.90
60293;DHT22;52402;52.670;6.750;2023-03-23T17:15:01;12.40;99.90
60293;DHT22;52402;52.670;6.750;2023-03-23T17:17:27;12.40;99.90
60293;DHT22;52402;52.670;6.750;2023-03-23T17:19:53;12.30;99.90
60293;DHT22;52402;52.670;6.750;2023-03-23T17:22:18;12.30;99.90
60293;DHT22;52402;52.670;6.750;2023-03-23T17:24:44;12.30;99.90